Etusivu
METAR-TAF:

METAR-TAF

Lentoasemat :

Kufra, Libya

Leveyspiiri: 24-13N, Pituuspiiri: 023-18E, korkeus merenpinnasta: 417 m

METAR: puuttuu

Aika: 07:18 (05:18 UTC)

Sääennuste

Tämä raportti tehtiin 18 minuuttia sitten, kello 05.00 UTC
Ennuste voimassa 03. päivästä klo 06 UTC - 04. päivään klo 06 UTC
Tuuli 15 kn pohjoisesta/koillisesta
Näkyvyys 10 km tai enemmän
ei pilviä alle 1500 m:ssä eikä cumulonimbus-pilviä
Tulossa
03. päivästä klo 10 UTC - 03. päivään klo 12 UTC
Tuuli 10 kn etelästä/kaakosta

TAF: HLKF 030500Z 0306/0406 03015KT CAVOK BECMG 0310/0312 16010KT

Säähavainnot ja -ennusteet yli 4000 lentoasemalta (METAR- ja TAF-raportit).

Käytössä olevat sääasemat on merkitty karttaan keltaisilla ja punaisilla pisteillä.

Aseta hiiri pisteen päälle nähdäksesi sääaseman nimen.

Klikkaa sitten nähdäksesi säähavainnot ja -ennusteet.

Kartan vaihtaminen: klikkaa mustalla rastilla varustettuja vihreitä pisteitä, niin voit zoomata sisään; viivalla varustettua vihreää pistettä, niin voit zoomata ulos tai vihreitä nuolia, niin pääset viereisille kartoille.


METAR-TAF: